Laurel Run, Pennsylvania
Current Conditions -  °F | °C
As of 7:54 AM on Friday 19 Dec 2014 (Local Time) from KAVP Reporting Station
Overcast Overcast  
Wind Chill: 21°   Ceiling: 2200
Heat Index: 31°   Visibility: 10mi
Dew Point: 21°   Wind: 14mph
Humidity: 67%   Direction: 320°NW
Pressure: 30.03"   Gusts: NA
Location:  41.1921°N, 75.9213°W
Report Text: KAVP 191254Z AUTO 32012KT 10SM OVC022 M01/M06 A3003 RMK AO2 SLP177 T10061061
Loading
Personal Weather Stations






























Interactive Weather Map New forecast layout! Learn more

10-Day Weather Forecast

Advertisements
Track Severe Weather on mobile